Time;durP1;ratioP1;P1;durP2;ratioP2;P2;SDS_P1;SDS_P2;PMS_P1;PMS_P2;Temp;Humidity;BMP_temperature;BMP_pressure;BME280_temperature;BME280_humidity;BME280_pressure;Samples;Min_cycle;Max_cycle;Signal;HPM_P1;HPM_P2
2021/08/04 01:27:57;;;;;;;4.60;3.90;;;17.10;98.30;;;;;;5188802;22;20517;31
2021/08/04 01:35:59;;;;;;;4.33;3.93;;;17.00;98.30;;;;;;5151445;23;20429;-80
2021/08/04 01:38:16;;;;;;;4.10;3.70;;;17.00;98.30;;;;;;5137687;23;20540;-80
2021/08/04 01:40:40;;;;;;;5.80;4.70;;;17.00;98.30;;;;;;5102418;23;20435;-80
2021/08/04 01:46:17;;;;;;;5.13;4.20;;;17.10;98.30;;;;;;5118907;23;20441;-80
2021/08/04 01:51:04;;;;;;;4.33;3.90;;;17.00;98.30;;;;;;5118052;23;20425;-80
2021/08/04 01:56:05;;;;;;;5.33;4.53;;;16.90;98.30;;;;;;5076743;23;20446;-79
2021/08/04 01:58:23;;;;;;;5.60;3.97;;;17.00;98.30;;;;;;5114976;23;21011;-79
2021/08/04 02:00:34;;;;;;;5.60;5.10;;;17.00;98.30;;;;;;5124463;23;20422;-80
2021/08/04 02:02:40;;;;;;;6.10;4.40;;;17.00;98.30;;;;;;5124738;23;20486;-79
2021/08/04 02:04:54;;;;;;;6.07;4.73;;;17.00;98.30;;;;;;5116597;23;20480;-80
2021/08/04 02:07:14;;;;;;;5.10;4.30;;;17.00;98.30;;;;;;5124239;23;20425;-79
2021/08/04 02:09:50;;;;;;;5.77;4.80;;;16.90;98.30;;;;;;5125729;23;20497;-79
2021/08/04 02:12:02;;;;;;;5.03;4.53;;;16.90;98.30;;;;;;5125604;23;20593;-80
2021/08/04 02:14:13;;;;;;;4.80;4.27;;;16.90;98.30;;;;;;5117359;23;20421;-79
2021/08/04 02:16:25;;;;;;;6.20;4.50;;;16.90;98.30;;;;;;5118141;23;20750;-81
2021/08/04 02:18:31;;;;;;;5.20;4.57;;;16.90;98.30;;;;;;5126352;23;20449;-79
2021/08/04 02:20:38;;;;;;;5.00;4.50;;;16.90;98.30;;;;;;5126271;23;20410;-80
2021/08/04 02:22:48;;;;;;;6.00;4.50;;;16.80;98.30;;;;;;5119162;23;20421;-81
2021/08/04 02:24:56;;;;;;;5.50;5.00;;;16.80;98.30;;;;;;5123403;23;20433;-83
2021/08/04 02:27:01;;;;;;;4.80;4.40;;;16.70;98.30;;;;;;5124474;23;20425;-81
2021/08/04 02:29:08;;;;;;;9.93;5.93;;;16.70;98.30;;;;;;5155392;23;20460;-81
2021/08/04 02:31:15;;;;;;;5.00;4.50;;;16.70;98.30;;;;;;5155355;23;20416;-81
2021/08/04 02:33:19;;;;;;;5.00;4.50;;;16.60;98.30;;;;;;5156028;23;20452;-81
2021/08/04 02:35:23;;;;;;;5.43;4.90;;;16.60;98.30;;;;;;5147720;23;20429;-81
2021/08/04 02:37:28;;;;;;;6.20;4.90;;;16.60;98.30;;;;;;5146886;23;20455;-81
2021/08/04 02:39:31;;;;;;;6.17;5.33;;;16.60;98.30;;;;;;5146620;23;20428;-81
2021/08/04 02:41:34;;;;;;;9.40;5.57;;;16.50;98.30;;;;;;5147005;23;20429;-80
2021/08/04 02:43:37;;;;;;;5.60;4.83;;;16.40;98.30;;;;;;5154596;23;20909;-81
2021/08/04 02:45:43;;;;;;;6.37;5.53;;;16.40;98.30;;;;;;5146397;23;20448;-80
2021/08/04 02:47:46;;;;;;;5.00;4.47;;;16.40;98.30;;;;;;5147962;23;20444;-81
2021/08/04 02:49:50;;;;;;;7.80;5.77;;;16.40;98.30;;;;;;5147325;23;20429;-80
2021/08/04 02:51:54;;;;;;;6.00;5.40;;;16.30;98.30;;;;;;5145638;23;20443;-81
2021/08/04 02:53:58;;;;;;;5.90;5.30;;;16.30;98.30;;;;;;5149403;23;20440;-82
2021/08/04 02:56:01;;;;;;;6.30;5.70;;;16.40;98.30;;;;;;5149105;23;20424;-81
2021/08/04 02:58:04;;;;;;;5.90;5.37;;;16.30;98.30;;;;;;5149106;23;20449;-81
2021/08/04 03:00:08;;;;;;;8.10;6.17;;;16.30;98.30;;;;;;5157574;23;20424;-82
2021/08/04 03:02:12;;;;;;;6.80;5.43;;;16.20;98.30;;;;;;5158242;23;20431;-81
2021/08/04 03:04:15;;;;;;;7.40;5.00;;;16.20;98.30;;;;;;5149671;23;20420;-82
2021/08/04 03:06:18;;;;;;;6.30;5.70;;;16.20;98.30;;;;;;5157500;23;20440;-81
2021/08/04 03:08:21;;;;;;;8.07;5.57;;;16.10;98.30;;;;;;5148865;23;20455;-81
2021/08/04 03:10:24;;;;;;;6.10;5.50;;;16.10;98.30;;;;;;5148480;23;20454;-81
2021/08/04 03:12:27;;;;;;;6.67;5.10;;;16.20;98.30;;;;;;5157360;23;20463;-82
2021/08/04 03:14:30;;;;;;;7.63;5.70;;;16.20;98.30;;;;;;5156052;23;21181;-82
2021/08/04 03:16:33;;;;;;;6.10;5.50;;;16.30;98.30;;;;;;5147764;23;20478;-81
2021/08/04 03:18:38;;;;;;;7.37;5.53;;;16.40;98.30;;;;;;5156302;23;20449;-81
2021/08/04 03:20:41;;;;;;;6.20;5.60;;;16.40;98.30;;;;;;5156145;23;20424;-80
2021/08/04 03:22:45;;;;;;;9.03;6.50;;;16.40;98.30;;;;;;5155045;23;20897;-81
2021/08/04 03:24:48;;;;;;;6.60;5.40;;;16.40;98.30;;;;;;5156304;23;20413;-82
2021/08/04 03:26:51;;;;;;;13.93;5.93;;;16.40;98.30;;;;;;5148693;23;20452;-81
2021/08/04 03:28:53;;;;;;;9.93;6.10;;;16.40;98.30;;;;;;5157970;23;20527;-80
2021/08/04 03:30:56;;;;;;;6.30;5.70;;;16.30;98.30;;;;;;5149309;23;20433;-81
2021/08/04 03:32:59;;;;;;;7.10;5.53;;;16.30;98.30;;;;;;5156912;23;20431;-81
2021/08/04 03:35:04;;;;;;;6.50;5.70;;;16.30;98.30;;;;;;5157084;23;20438;-82
2021/08/04 03:37:07;;;;;;;6.80;5.20;;;16.30;98.30;;;;;;5148760;23;20890;-82
2021/08/04 03:39:10;;;;;;;6.70;5.90;;;16.30;98.30;;;;;;5149401;23;20429;-80
2021/08/04 03:41:13;;;;;;;9.00;5.97;;;16.30;98.30;;;;;;5148590;23;20435;-82
2021/08/04 03:43:16;;;;;;;7.30;4.97;;;16.30;98.30;;;;;;5156751;23;20424;-80
2021/08/04 03:45:19;;;;;;;5.47;4.93;;;16.40;98.30;;;;;;5148747;23;20512;-79
2021/08/04 03:47:22;;;;;;;5.50;4.80;;;16.30;98.30;;;;;;5154940;23;20463;-82
2021/08/04 03:49:24;;;;;;;8.07;6.63;;;16.30;98.30;;;;;;5147039;23;20437;-79
2021/08/04 03:51:29;;;;;;;10.20;8.97;;;16.30;98.30;;;;;;5157588;23;20424;-80
2021/08/04 03:53:32;;;;;;;8.83;6.40;;;16.30;98.30;;;;;;5155503;23;20428;-79
2021/08/04 03:55:35;;;;;;;6.60;5.90;;;16.30;98.30;;;;;;5147354;23;20903;-80
2021/08/04 03:57:37;;;;;;;7.33;5.23;;;16.30;98.30;;;;;;5146749;23;20762;-80
2021/08/04 03:59:40;;;;;;;5.87;5.27;;;16.20;98.30;;;;;;5157005;23;20427;-82
2021/08/04 04:01:43;;;;;;;6.23;4.90;;;16.10;98.30;;;;;;5157704;23;20452;-81
2021/08/04 04:03:46;;;;;;;7.03;5.20;;;16.10;98.30;;;;;;5156769;23;20424;-81
2021/08/04 04:05:49;;;;;;;6.00;5.17;;;16.10;98.30;;;;;;5150180;23;20435;-81
2021/08/04 04:07:53;;;;;;;8.80;5.10;;;16.00;98.30;;;;;;5148350;23;20458;-81
2021/08/04 04:09:56;;;;;;;5.50;4.20;;;16.00;98.30;;;;;;5147150;23;20428;-80
2021/08/04 04:11:59;;;;;;;6.13;4.50;;;16.00;98.30;;;;;;5155167;23;20417;-80
2021/08/04 04:14:02;;;;;;;7.20;6.53;;;16.00;98.30;;;;;;5153373;23;20435;-81
2021/08/04 04:16:05;;;;;;;6.10;4.43;;;15.90;98.30;;;;;;5147274;23;20425;-81
2021/08/04 04:18:08;;;;;;;5.10;4.27;;;16.00;98.30;;;;;;5158190;23;20445;-81
2021/08/04 04:20:12;;;;;;;5.00;4.53;;;16.00;98.30;;;;;;5157082;23;20452;-81
2021/08/04 04:22:15;;;;;;;8.07;5.10;;;16.00;98.30;;;;;;5156640;23;20428;-83
2021/08/04 04:24:20;;;;;;;8.73;4.70;;;16.00;98.30;;;;;;5157570;23;20425;-83
2021/08/04 04:26:23;;;;;;;6.67;4.13;;;16.00;98.30;;;;;;5157938;23;20508;-83
2021/08/04 04:28:25;;;;;;;5.87;4.50;;;15.90;98.30;;;;;;5158138;23;20444;-83
2021/08/04 04:30:29;;;;;;;5.30;4.80;;;16.00;98.30;;;;;;5158813;23;20457;-83
2021/08/04 04:32:31;;;;;;;11.53;6.77;;;16.10;98.30;;;;;;5158696;23;20429;-84
2021/08/04 04:34:35;;;;;;;4.90;4.40;;;16.00;98.30;;;;;;5150763;23;20424;-83
2021/08/04 04:36:38;;;;;;;7.60;4.43;;;16.00;98.30;;;;;;5158605;23;20417;-83
2021/08/04 04:38:41;;;;;;;6.60;4.33;;;16.00;98.30;;;;;;5158750;23;20457;-83
2021/08/04 04:40:45;;;;;;;4.03;3.63;;;16.00;98.30;;;;;;5150368;23;20455;-83
2021/08/04 04:42:48;;;;;;;4.20;3.80;;;16.00;98.30;;;;;;5156867;23;20906;-81
2021/08/04 04:44:51;;;;;;;4.27;3.60;;;16.00;98.30;;;;;;5159339;23;20417;-83
2021/08/04 04:46:54;;;;;;;7.30;4.47;;;16.00;98.30;;;;;;5160011;23;20448;-83
2021/08/04 04:48:57;;;;;;;4.50;4.10;;;16.10;98.30;;;;;;5160352;23;20524;-85
2021/08/04 04:51:00;;;;;;;7.73;3.90;;;16.10;98.30;;;;;;5158901;23;20413;-83
2021/08/04 04:53:03;;;;;;;4.80;4.33;;;16.20;98.30;;;;;;5157987;23;20525;-83
2021/08/04 04:55:07;;;;;;;8.13;4.07;;;16.20;98.30;;;;;;5158993;23;20421;-83
2021/08/04 04:57:11;;;;;;;6.40;3.80;;;16.20;98.30;;;;;;5158239;23;20796;-85
2021/08/04 04:59:14;;;;;;;4.97;3.70;;;16.20;98.30;;;;;;5158494;23;20496;-84
2021/08/04 05:01:17;;;;;;;3.73;3.43;;;16.30;98.30;;;;;;5150092;23;20468;-83
2021/08/04 05:03:20;;;;;;;4.13;3.60;;;16.30;98.30;;;;;;5157257;23;20425;-84
2021/08/04 05:05:23;;;;;;;4.33;3.87;;;16.40;98.30;;;;;;5142267;23;20433;-82
2021/08/04 05:07:26;;;;;;;4.03;3.60;;;16.40;98.30;;;;;;5149676;23;20479;-83
2021/08/04 05:09:29;;;;;;;4.57;3.97;;;16.40;98.30;;;;;;5149598;23;20425;-82
2021/08/04 05:11:32;;;;;;;4.53;3.80;;;16.50;98.30;;;;;;5150489;23;20748;-82
2021/08/04 05:13:38;;;;;;;4.47;3.07;;;16.50;98.30;;;;;;5141786;23;20429;-82
2021/08/04 05:15:41;;;;;;;3.63;3.27;;;16.50;98.30;;;;;;5150034;23;20432;-83
2021/08/04 05:17:44;;;;;;;5.60;3.70;;;16.60;98.30;;;;;;5150159;23;20528;-82
2021/08/04 05:19:47;;;;;;;5.50;3.73;;;16.60;98.30;;;;;;5150036;23;20429;-82
2021/08/04 05:21:50;;;;;;;5.20;3.93;;;16.70;98.30;;;;;;5150540;23;20425;-82
2021/08/04 05:23:53;;;;;;;3.90;3.50;;;16.70;98.30;;;;;;5150107;23;20428;-82
2021/08/04 05:25:56;;;;;;;4.40;3.00;;;16.80;98.30;;;;;;5150425;23;20452;-82
2021/08/04 05:27:58;;;;;;;6.77;3.87;;;16.80;98.30;;;;;;5150894;23;20823;-82
2021/08/04 05:30:03;;;;;;;4.90;3.20;;;16.80;98.30;;;;;;5151016;23;20508;-82
2021/08/04 05:32:07;;;;;;;5.10;3.30;;;16.80;98.30;;;;;;5150633;23;20612;-82
2021/08/04 05:34:10;;;;;;;4.63;3.70;;;16.80;98.30;;;;;;5151350;23;20432;-82
2021/08/04 05:36:13;;;;;;;5.20;3.50;;;16.90;98.30;;;;;;5151537;23;20953;-83
2021/08/04 05:38:16;;;;;;;3.97;3.53;;;16.90;98.30;;;;;;5143705;23;20949;-82
2021/08/04 05:40:19;;;;;;;4.70;3.77;;;17.00;98.30;;;;;;5152519;23;20424;-82
2021/08/04 05:42:22;;;;;;;5.80;3.40;;;17.00;98.30;;;;;;5154103;23;20434;-82
2021/08/04 05:44:25;;;;;;;5.93;4.17;;;17.00;98.30;;;;;;5155646;23;20481;-83
2021/08/04 05:46:31;;;;;;;3.90;3.37;;;17.00;98.30;;;;;;5159003;23;20479;-84
2021/08/04 05:48:34;;;;;;;5.00;3.47;;;17.10;98.30;;;;;;5158469;23;20538;-84
2021/08/04 05:50:37;;;;;;;3.70;3.30;;;17.10;98.30;;;;;;5159375;23;20464;-82
2021/08/04 05:52:40;;;;;;;4.37;3.80;;;17.10;98.30;;;;;;5158136;23;20460;-83
2021/08/04 05:54:44;;;;;;;4.43;4.03;;;17.20;98.30;;;;;;5157898;23;20506;-83
2021/08/04 05:56:47;;;;;;;5.80;4.10;;;17.30;98.30;;;;;;5158766;23;20425;-83
2021/08/04 05:58:50;;;;;;;4.30;3.63;;;17.40;98.30;;;;;;5151184;23;20451;-82
2021/08/04 06:00:53;;;;;;;4.40;3.57;;;17.40;98.30;;;;;;5157560;23;20428;-82
2021/08/04 06:02:58;;;;;;;4.10;3.07;;;17.50;98.30;;;;;;5156384;23;20425;-83
2021/08/04 06:05:01;;;;;;;3.40;3.00;;;17.60;98.30;;;;;;5150545;23;20429;-83
2021/08/04 06:07:04;;;;;;;5.93;4.53;;;17.70;98.30;;;;;;5158077;23;20424;-83
2021/08/04 06:09:07;;;;;;;4.23;3.83;;;17.80;98.30;;;;;;5159029;23;20445;-84
2021/08/04 06:11:11;;;;;;;5.07;3.60;;;17.80;98.30;;;;;;5158757;23;20424;-83
2021/08/04 06:13:14;;;;;;;3.70;3.30;;;17.80;98.30;;;;;;5157770;23;20870;-82
2021/08/04 06:15:23;;;;;;;3.40;3.10;;;17.90;98.30;;;;;;5158848;23;20424;-83
2021/08/04 06:17:26;;;;;;;3.60;3.07;;;17.80;98.30;;;;;;5158004;23;20506;-83
2021/08/04 06:19:31;;;;;;;5.57;3.37;;;17.80;98.30;;;;;;5150567;23;20436;-82
2021/08/04 06:21:34;;;;;;;4.10;3.53;;;17.80;98.30;;;;;;5157651;23;20424;-83
2021/08/04 06:23:37;;;;;;;3.63;3.30;;;17.80;98.30;;;;;;5157987;23;20429;-84
2021/08/04 06:25:40;;;;;;;3.33;3.00;;;17.90;98.30;;;;;;5158227;23;20452;-83
2021/08/04 06:27:44;;;;;;;4.03;3.57;;;17.90;98.30;;;;;;5157930;23;20452;-83
2021/08/04 06:29:46;;;;;;;4.50;3.60;;;17.80;98.30;;;;;;5157819;23;20444;-82
2021/08/04 06:31:50;;;;;;;4.43;3.50;;;17.80;98.30;;;;;;5158687;23;20516;-85
2021/08/04 06:33:53;;;;;;;5.03;3.50;;;17.80;98.30;;;;;;5157708;23;20420;-84
2021/08/04 06:35:57;;;;;;;6.43;3.10;;;17.80;98.30;;;;;;5157352;23;20421;-82
2021/08/04 06:38:00;;;;;;;4.20;3.50;;;17.70;98.30;;;;;;5158021;23;20456;-83
2021/08/04 06:40:04;;;;;;;4.00;3.57;;;17.70;98.30;;;;;;5157428;23;20428;-83
2021/08/04 06:42:07;;;;;;;3.80;3.10;;;17.80;98.30;;;;;;5158239;23;20519;-83
2021/08/04 06:44:10;;;;;;;5.03;3.40;;;17.80;98.30;;;;;;5156553;23;20428;-82
2021/08/04 06:46:14;;;;;;;4.57;3.90;;;17.80;98.30;;;;;;5155313;23;20898;-83
2021/08/04 06:48:18;;;;;;;6.37;4.00;;;17.80;98.30;;;;;;5154892;23;20459;-83
2021/08/04 06:50:21;;;;;;;5.07;3.57;;;17.90;98.30;;;;;;5155935;23;20435;-83
2021/08/04 06:52:28;;;;;;;3.70;3.40;;;17.90;98.30;;;;;;5156111;23;20799;-84
2021/08/04 06:54:32;;;;;;;4.10;3.27;;;18.00;98.30;;;;;;5156946;23;20369;-83
2021/08/04 06:56:35;;;;;;;3.53;2.90;;;18.00;98.30;;;;;;5157235;23;20528;-82
2021/08/04 06:58:38;;;;;;;4.83;3.53;;;18.00;98.30;;;;;;5156858;23;20539;-85
2021/08/04 07:00:41;;;;;;;4.17;3.30;;;18.10;98.30;;;;;;5147971;23;20425;-83
2021/08/04 07:02:44;;;;;;;3.60;3.30;;;18.10;98.30;;;;;;5148748;23;20429;-84
2021/08/04 07:04:48;;;;;;;3.67;2.97;;;18.10;98.30;;;;;;5158385;23;20425;-83
2021/08/04 07:06:53;;;;;;;3.70;3.20;;;18.10;98.30;;;;;;5157647;23;20508;-83
2021/08/04 07:08:57;;;;;;;3.87;3.57;;;18.10;98.30;;;;;;5149677;23;20439;-84
2021/08/04 07:11:00;;;;;;;4.50;3.50;;;18.20;98.30;;;;;;5158217;23;20929;-83
2021/08/04 07:13:04;;;;;;;4.30;3.40;;;18.30;98.30;;;;;;5147322;23;20515;-83
2021/08/04 07:15:08;;;;;;;3.50;3.07;;;18.30;98.30;;;;;;5147400;23;20433;-84
2021/08/04 07:17:11;;;;;;;3.90;3.10;;;18.30;98.30;;;;;;5156245;23;20439;-83
2021/08/04 07:19:15;;;;;;;3.90;3.20;;;18.40;98.30;;;;;;5148645;23;20425;-83
2021/08/04 07:21:18;;;;;;;7.23;4.00;;;18.50;98.30;;;;;;5158376;23;20425;-82
2021/08/04 07:23:21;;;;;;;7.23;5.47;;;18.50;98.30;;;;;;5156890;23;20501;-83
2021/08/04 07:25:25;;;;;;;3.63;3.20;;;18.60;98.30;;;;;;5158219;23;20451;-83
2021/08/04 07:27:28;;;;;;;7.07;3.60;;;18.60;98.30;;;;;;5156170;23;20485;-82
2021/08/04 07:29:32;;;;;;;5.90;4.60;;;18.60;98.30;;;;;;5142455;23;20461;-84
2021/08/04 07:31:35;;;;;;;4.40;4.00;;;18.60;98.30;;;;;;5150657;23;20424;-83
2021/08/04 07:33:39;;;;;;;5.63;3.30;;;18.60;98.30;;;;;;5151644;23;20421;-84
2021/08/04 07:35:42;;;;;;;5.73;3.57;;;18.50;98.30;;;;;;5144050;23;20507;-84
2021/08/04 07:37:45;;;;;;;3.90;3.30;;;18.50;98.30;;;;;;5144181;23;20927;-84
2021/08/04 07:39:48;;;;;;;3.53;3.23;;;18.50;98.30;;;;;;5152215;23;20431;-83
2021/08/04 07:41:52;;;;;;;3.57;3.27;;;18.50;98.30;;;;;;5152441;23;20503;-85
2021/08/04 07:43:55;;;;;;;3.83;3.40;;;18.60;98.30;;;;;;5151662;23;20504;-84
2021/08/04 07:45:58;;;;;;;10.07;3.47;;;18.60;98.30;;;;;;5144015;23;20831;-83
2021/08/04 07:48:01;;;;;;;4.33;3.00;;;18.60;98.30;;;;;;5143462;23;20459;-84
2021/08/04 07:50:06;;;;;;;3.87;3.00;;;18.60;98.30;;;;;;5151629;23;20518;-83
2021/08/04 07:52:10;;;;;;;3.83;3.43;;;18.70;98.30;;;;;;5152171;23;20431;-83
2021/08/04 07:54:12;;;;;;;3.53;3.23;;;18.80;98.30;;;;;;5151923;23;21031;-82
2021/08/04 07:56:19;;;;;;;5.63;4.47;;;18.80;98.30;;;;;;5152211;23;20417;-84
2021/08/04 07:58:23;;;;;;;7.50;5.00;;;18.90;98.30;;;;;;5152399;23;20519;-84
2021/08/04 08:00:27;;;;;;;4.90;4.03;;;18.90;98.30;;;;;;5143475;23;20452;-83
2021/08/04 08:02:30;;;;;;;9.73;3.40;;;18.90;98.30;;;;;;5144254;23;20456;-83
2021/08/04 08:04:34;;;;;;;4.20;3.30;;;18.90;98.30;;;;;;5144108;23;20508;-83
2021/08/04 08:06:37;;;;;;;5.13;3.43;;;18.90;98.30;;;;;;5144130;23;20429;-83
2021/08/04 08:08:40;;;;;;;10.10;3.80;;;19.00;98.30;;;;;;5143913;23;20489;-83
2021/08/04 08:10:43;;;;;;;5.27;3.57;;;19.00;98.30;;;;;;5144408;23;20435;-84
2021/08/04 08:12:47;;;;;;;3.63;3.33;;;18.90;98.30;;;;;;5152051;23;20448;-83
2021/08/04 08:14:52;;;;;;;3.90;3.10;;;18.90;98.30;;;;;;5152464;23;20499;-83
2021/08/04 08:16:55;;;;;;;5.40;3.63;;;18.80;98.30;;;;;;5150686;23;20515;-83
2021/08/04 08:18:58;;;;;;;3.53;3.23;;;18.90;98.30;;;;;;5150258;23;20424;-83
2021/08/04 08:21:01;;;;;;;4.27;3.10;;;18.90;98.30;;;;;;5150448;23;20429;-83
2021/08/04 08:23:04;;;;;;;5.27;3.13;;;18.80;98.30;;;;;;5150615;23;20436;-83
2021/08/04 08:25:11;;;;;;;4.80;3.50;;;18.80;98.30;;;;;;5150478;23;20777;-82
2021/08/04 08:27:15;;;;;;;5.60;3.90;;;18.80;98.30;;;;;;5150451;23;20480;-84
2021/08/04 08:29:18;;;;;;;3.53;3.23;;;18.80;98.30;;;;;;5143553;23;20456;-82
2021/08/04 08:31:22;;;;;;;3.20;2.90;;;18.90;98.30;;;;;;5151268;23;20998;-83
2021/08/04 08:33:25;;;;;;;6.50;5.87;;;18.90;98.30;;;;;;5142664;23;20425;-83
2021/08/04 08:35:30;;;;;;;4.33;3.33;;;18.90;98.30;;;;;;5142870;23;20439;-83
2021/08/04 08:37:33;;;;;;;4.70;3.80;;;18.80;98.30;;;;;;5143013;23;20452;-83
2021/08/04 08:39:36;;;;;;;7.97;6.10;;;18.80;98.30;;;;;;5142959;23;20425;-83
2021/08/04 08:41:39;;;;;;;5.90;4.37;;;18.80;98.30;;;;;;5143094;23;20776;-83
2021/08/04 08:43:42;;;;;;;4.73;3.13;;;18.80;98.30;;;;;;5151132;23;20504;-83
2021/08/04 08:45:47;;;;;;;3.23;2.83;;;18.80;98.30;;;;;;5143312;23;20451;-82
2021/08/04 08:47:52;;;;;;;3.50;2.90;;;18.90;98.30;;;;;;5143000;23;20523;-84
2021/08/04 08:49:56;;;;;;;4.27;3.00;;;18.90;98.30;;;;;;5151700;23;20441;-82
2021/08/04 08:51:59;;;;;;;4.40;3.40;;;18.90;98.30;;;;;;5143489;23;21013;-83
2021/08/04 08:54:02;;;;;;;3.70;3.30;;;18.90;98.30;;;;;;5142691;23;20429;-82
2021/08/04 08:56:07;;;;;;;5.17;3.30;;;18.90;98.30;;;;;;5151491;23;20740;-84
2021/08/04 08:58:10;;;;;;;3.60;2.93;;;18.90;98.30;;;;;;5143392;23;20456;-84
2021/08/04 09:00:14;;;;;;;4.90;3.23;;;18.90;98.30;;;;;;5152401;23;21241;-83
2021/08/04 09:02:17;;;;;;;3.60;3.30;;;19.00;98.30;;;;;;5143308;23;20434;-83
2021/08/04 09:04:22;;;;;;;3.20;2.90;;;19.10;98.30;;;;;;5143043;23;20436;-82
2021/08/04 09:06:43;;;;;;;3.27;2.90;;;19.20;98.30;;;;;;5143209;23;20512;-83
2021/08/04 09:08:46;;;;;;;6.20;3.37;;;19.30;98.30;;;;;;5151367;23;20444;-83
2021/08/04 09:10:49;;;;;;;3.37;3.07;;;19.30;98.30;;;;;;5151273;23;20536;-83
2021/08/04 09:12:54;;;;;;;4.47;3.37;;;19.30;98.30;;;;;;5151173;23;20456;-83
2021/08/04 09:14:57;;;;;;;3.40;3.10;;;19.50;98.30;;;;;;5143215;23;20435;-84
2021/08/04 09:17:04;;;;;;;4.73;3.57;;;19.50;98.30;;;;;;5151383;23;20894;-84
2021/08/04 09:19:20;;;;;;;4.80;3.43;;;19.60;98.30;;;;;;5151378;23;20866;-83
2021/08/04 09:21:24;;;;;;;6.20;3.30;;;19.70;98.30;;;;;;5150331;23;20498;-84
2021/08/04 09:23:28;;;;;;;5.70;3.50;;;19.80;98.30;;;;;;5149580;23;20425;-84
2021/08/04 09:25:31;;;;;;;3.70;3.07;;;19.80;98.30;;;;;;5150955;23;20417;-84
2021/08/04 09:27:42;;;;;;;2.93;2.50;;;19.90;98.30;;;;;;5150237;23;20548;-81
2021/08/04 09:29:59;;;;;;;7.03;4.40;;;19.90;98.30;;;;;;5142086;23;20456;-84
2021/08/04 09:32:03;;;;;;;4.80;3.33;;;20.00;98.30;;;;;;5142796;23;20413;-83
2021/08/04 09:34:26;;;;;;;15.97;11.20;;;20.00;98.30;;;;;;5142127;23;20748;-83
2021/08/04 09:36:31;;;;;;;9.20;5.63;;;19.90;98.30;;;;;;5150609;23;20743;-82
2021/08/04 09:38:34;;;;;;;7.13;4.10;;;20.00;98.30;;;;;;5142495;23;20532;-83
2021/08/04 09:40:37;;;;;;;4.80;3.53;;;19.90;98.30;;;;;;5142774;23;20425;-83
2021/08/04 09:42:46;;;;;;;6.30;3.23;;;20.00;98.30;;;;;;5142906;23;20440;-83
2021/08/04 09:44:53;;;;;;;4.60;3.37;;;20.10;98.30;;;;;;5151038;23;20814;-85
2021/08/04 09:47:07;;;;;;;3.47;3.17;;;20.10;98.30;;;;;;5157281;23;20417;-83
2021/08/04 09:49:11;;;;;;;3.30;3.00;;;20.30;98.30;;;;;;5143463;23;21013;-83
2021/08/04 09:51:17;;;;;;;3.53;2.90;;;20.20;98.30;;;;;;5143427;23;20839;-83
2021/08/04 09:53:25;;;;;;;3.20;2.90;;;20.20;98.30;;;;;;5142715;23;20449;-83
2021/08/04 09:55:28;;;;;;;4.77;3.17;;;20.20;98.30;;;;;;5151109;23;20433;-83
2021/08/04 09:57:39;;;;;;;3.40;3.10;;;20.10;98.30;;;;;;5142591;23;20532;-84
2021/08/04 10:00:05;;;;;;;3.50;3.20;;;20.20;98.30;;;;;;5151776;23;20423;-82
2021/08/04 10:02:31;;;;;;;6.27;3.47;;;20.30;98.30;;;;;;5151481;23;20428;-83
2021/08/04 10:04:34;;;;;;;4.50;3.57;;;20.40;98.30;;;;;;5151879;23;20420;-83
2021/08/04 10:06:39;;;;;;;3.20;2.90;;;20.20;98.30;;;;;;5143018;23;20937;-83
2021/08/04 10:08:43;;;;;;;4.33;3.30;;;20.30;98.30;;;;;;5143188;23;20445;-83
2021/08/04 10:10:50;;;;;;;4.13;3.30;;;20.40;98.30;;;;;;5142535;23;20433;-82
2021/08/04 10:12:55;;;;;;;3.50;3.20;;;20.50;98.30;;;;;;5151268;23;20515;-83
2021/08/04 10:14:58;;;;;;;3.93;3.10;;;20.70;98.30;;;;;;5152124;23;20515;-84
2021/08/04 10:17:05;;;;;;;5.07;3.60;;;20.90;98.30;;;;;;5142879;23;20747;-84
2021/08/04 10:19:08;;;;;;;4.73;3.70;;;20.90;98.30;;;;;;5151422;23;21194;-83
2021/08/04 10:21:16;;;;;;;18.83;16.83;;;21.10;98.30;;;;;;5143079;23;20409;-84
2021/08/04 10:23:20;;;;;;;3.60;3.07;;;21.10;98.30;;;;;;5149482;23;20507;-83
2021/08/04 10:25:25;;;;;;;3.50;3.00;;;21.20;98.30;;;;;;5150817;23;20428;-83
2021/08/04 10:27:33;;;;;;;3.97;3.23;;;21.30;98.30;;;;;;5142594;23;20448;-83
2021/08/04 10:29:36;;;;;;;9.33;5.60;;;21.10;98.30;;;;;;5151568;23;20484;-84
2021/08/04 10:31:43;;;;;;;4.00;3.60;;;21.20;98.30;;;;;;5150838;23;20536;-83
2021/08/04 10:33:58;;;;;;;3.60;3.30;;;21.00;98.30;;;;;;5150515;23;21033;-83
2021/08/04 10:36:07;;;;;;;4.30;3.33;;;20.70;98.30;;;;;;5151005;23;20802;-83
2021/08/04 10:38:17;;;;;;;4.10;3.57;;;21.10;98.30;;;;;;5143295;23;20448;-83
2021/08/04 10:40:20;;;;;;;4.57;4.17;;;21.10;98.30;;;;;;5150985;23;20852;-83
2021/08/04 10:42:40;;;;;;;4.43;3.50;;;21.20;98.30;;;;;;5151554;23;20417;-83
2021/08/04 10:44:44;;;;;;;4.07;3.67;;;21.30;98.30;;;;;;5153113;23;20810;-81
2021/08/04 10:46:47;;;;;;;6.50;3.30;;;21.50;98.30;;;;;;5145051;23;20484;-83
2021/08/04 10:48:50;;;;;;;4.27;3.40;;;21.60;98.30;;;;;;5151868;23;20429;-83
2021/08/04 10:51:18;;;;;;;3.70;3.17;;;21.70;98.30;;;;;;5149905;23;20543;-83
2021/08/04 10:53:21;;;;;;;3.80;3.40;;;22.00;98.30;;;;;;5140748;23;20413;-83
2021/08/04 10:55:24;;;;;;;3.83;3.10;;;22.30;98.30;;;;;;5141454;23;20428;-84
2021/08/04 10:57:26;;;;;;;8.40;4.20;;;22.60;98.30;;;;;;5141322;23;20451;-83
2021/08/04 10:59:31;;;;;;;4.23;3.80;;;22.80;97.80;;;;;;5141470;23;20429;-83
2021/08/04 11:01:34;;;;;;;8.10;3.50;;;22.80;97.20;;;;;;5149158;23;20492;-83
2021/08/04 11:03:52;;;;;;;3.43;3.13;;;23.00;98.30;;;;;;5148623;23;20420;-83
2021/08/04 11:06:04;;;;;;;3.93;2.80;;;23.50;98.30;;;;;;5149530;23;20420;-84
2021/08/04 11:08:18;;;;;;;5.37;3.20;;;24.20;96.00;;;;;;5150776;23;20842;-83
2021/08/04 11:10:37;;;;;;;3.70;3.40;;;24.90;95.00;;;;;;5142494;23;20424;-84
2021/08/04 11:12:48;;;;;;;3.47;3.13;;;25.00;93.20;;;;;;5151268;23;20796;-84
2021/08/04 11:14:54;;;;;;;3.17;2.80;;;25.00;92.10;;;;;;5142929;23;20729;-84
2021/08/04 11:17:01;;;;;;;3.33;3.03;;;25.10;92.50;;;;;;5150775;23;20412;-84
2021/08/04 11:19:07;;;;;;;3.20;2.90;;;25.50;89.00;;;;;;5151603;23;20837;-84
2021/08/04 11:21:12;;;;;;;8.00;3.10;;;25.60;87.20;;;;;;5151465;23;20397;-84
2021/08/04 11:23:15;;;;;;;3.33;3.03;;;25.40;87.80;;;;;;5150757;23;20425;-83
2021/08/04 11:25:35;;;;;;;3.43;3.00;;;25.30;88.00;;;;;;5151294;23;20925;-85
2021/08/04 11:28:06;;;;;;;3.27;2.90;;;24.90;86.40;;;;;;5150736;23;20440;-84
2021/08/04 11:30:12;;;;;;;4.87;3.00;;;24.40;88.70;;;;;;5143989;23;21104;-84
2021/08/04 11:32:18;;;;;;;5.53;3.13;;;24.20;89.70;;;;;;5143495;23;20437;-84
2021/08/04 11:34:29;;;;;;;3.53;3.00;;;23.90;89.60;;;;;;5143543;23;20425;-84
2021/08/04 11:36:33;;;;;;;3.30;3.00;;;24.00;90.80;;;;;;5144062;23;20409;-84
2021/08/04 11:38:37;;;;;;;5.90;3.23;;;24.20;91.10;;;;;;5143059;23;20535;-84
2021/08/04 11:40:40;;;;;;;4.20;3.43;;;24.00;90.00;;;;;;5151917;23;20439;-84
2021/08/04 11:42:43;;;;;;;3.00;2.70;;;23.60;89.90;;;;;;5151465;23;20764;-84
2021/08/04 11:44:46;;;;;;;3.00;2.23;;;23.30;89.00;;;;;;5152146;23;21011;-84
2021/08/04 11:46:53;;;;;;;2.90;2.53;;;23.10;88.70;;;;;;5143128;23;20497;-83
2021/08/04 11:48:56;;;;;;;3.50;3.00;;;23.20;89.60;;;;;;5144184;23;20467;-82
2021/08/04 11:50:59;;;;;;;3.70;2.73;;;23.10;90.40;;;;;;5143057;23;21031;-81
2021/08/04 11:53:04;;;;;;;3.20;2.90;;;23.10;90.40;;;;;;5156487;23;20472;-82
2021/08/04 11:55:10;;;;;;;3.20;2.87;;;23.30;91.90;;;;;;5152634;23;20437;-84
2021/08/04 11:57:27;;;;;;;3.40;2.93;;;23.30;93.30;;;;;;5143628;23;20488;-84
2021/08/04 11:59:31;;;;;;;3.97;2.90;;;23.20;93.10;;;;;;5143025;23;20445;-84
2021/08/04 12:01:34;;;;;;;4.73;4.00;;;23.10;93.70;;;;;;5151218;23;20447;-83
2021/08/04 12:03:42;;;;;;;4.17;3.23;;;23.20;93.90;;;;;;5151439;23;20416;-84
2021/08/04 12:05:45;;;;;;;6.53;3.40;;;23.10;93.50;;;;;;5151682;23;20492;-84
2021/08/04 12:07:48;;;;;;;3.57;3.03;;;23.00;94.10;;;;;;5142840;23;20445;-83
2021/08/04 12:09:51;;;;;;;9.40;4.50;;;23.10;94.40;;;;;;5143297;23;20508;-83
2021/08/04 12:11:54;;;;;;;4.43;4.03;;;23.20;95.50;;;;;;5145004;23;20484;-83
2021/08/04 12:14:04;;;;;;;5.20;4.43;;;23.30;94.00;;;;;;5145085;23;20752;-84
2021/08/04 12:16:09;;;;;;;8.70;4.50;;;23.30;93.80;;;;;;5151734;23;20463;-83
2021/08/04 12:18:13;;;;;;;5.43;3.70;;;23.10;94.40;;;;;;5151294;23;20449;-84
2021/08/04 12:20:20;;;;;;;4.53;3.43;;;23.20;94.70;;;;;;5144011;23;20459;-83
2021/08/04 12:22:25;;;;;;;3.77;3.20;;;23.30;94.60;;;;;;5151926;23;20493;-84
2021/08/04 12:24:27;;;;;;;5.37;3.23;;;23.40;95.20;;;;;;5152002;23;20467;-83
2021/08/04 12:26:43;;;;;;;3.40;3.07;;;23.60;93.90;;;;;;5143925;23;20467;-83
2021/08/04 12:28:46;;;;;;;6.20;2.77;;;23.70;94.10;;;;;;5151538;23;20482;-82
2021/08/04 12:30:49;;;;;;;3.83;2.90;;;23.90;93.30;;;;;;5151788;23;20520;-83
2021/08/04 12:32:59;;;;;;;3.23;2.93;;;24.10;93.20;;;;;;5142936;23;20449;-85